Time;durP1;ratioP1;P1;durP2;ratioP2;P2;SDS_P1;SDS_P2;PMS_P1;PMS_P2;Temp;Humidity;BMP_temperature;BMP_pressure;BME280_temperature;BME280_humidity;BME280_pressure;Samples;Min_cycle;Max_cycle;Signal;HPM_P1;HPM_P2
2023/06/28 00:01:36;;;;;;;10.13;9.13;;;18.80;99.90;;;;;;6275488;28;20259;-59
2023/06/28 00:04:40;;;;;;;11.27;9.13;;;18.80;99.90;;;;;;6275237;28;20242;-61
2023/06/28 00:07:43;;;;;;;10.67;9.67;;;18.90;99.90;;;;;;6275079;28;20229;-60
2023/06/28 00:10:46;;;;;;;10.37;9.47;;;18.90;99.90;;;;;;6272976;28;20196;-61
2023/06/28 00:13:51;;;;;;;9.83;8.93;;;18.90;99.90;;;;;;6274794;28;20638;-60
2023/06/28 00:16:54;;;;;;;10.30;9.40;;;18.90;99.90;;;;;;6275140;28;20227;-58
2023/06/28 00:19:58;;;;;;;10.57;9.60;;;18.90;99.90;;;;;;6274807;28;20458;-58
2023/06/28 00:23:03;;;;;;;10.53;9.53;;;18.80;99.90;;;;;;6274726;28;20231;-58
2023/06/28 00:26:06;;;;;;;10.40;9.60;;;18.90;99.90;;;;;;6275050;28;20241;-58
2023/06/28 00:29:10;;;;;;;10.87;9.80;;;18.90;99.90;;;;;;6274295;28;20655;-58
2023/06/28 00:32:13;;;;;;;12.13;9.43;;;19.00;99.90;;;;;;6275722;28;20790;-58
2023/06/28 00:35:17;;;;;;;10.40;9.40;;;19.00;99.90;;;;;;6276660;28;20277;-57
2023/06/28 00:38:20;;;;;;;10.37;9.37;;;19.00;99.90;;;;;;6277063;28;20231;-57
2023/06/28 00:41:23;;;;;;;9.47;8.63;;;19.00;99.90;;;;;;6276050;28;20236;-57
2023/06/28 00:44:28;;;;;;;9.93;9.03;;;19.00;99.90;;;;;;6275385;28;20241;-58
2023/06/28 00:47:32;;;;;;;11.20;9.40;;;19.10;99.90;;;;;;6276160;28;20246;-58
2023/06/28 00:50:37;;;;;;;9.50;8.70;;;19.10;99.90;;;;;;6276004;28;20246;-58
2023/06/28 00:53:40;;;;;;;10.03;9.17;;;19.10;99.90;;;;;;6276111;28;20234;-58
2023/06/28 00:56:44;;;;;;;9.10;8.40;;;19.10;99.90;;;;;;6275904;28;20656;-58
2023/06/28 00:59:50;;;;;;;10.37;9.47;;;19.10;99.90;;;;;;6275620;28;20232;-58
2023/06/28 01:02:54;;;;;;;11.90;9.50;;;19.20;99.90;;;;;;6276129;28;20253;-58
2023/06/28 01:05:59;;;;;;;9.53;8.67;;;19.10;99.90;;;;;;6275797;28;20227;-58
2023/06/28 01:09:04;;;;;;;10.17;9.13;;;19.20;99.90;;;;;;6275445;28;20246;-58
2023/06/28 01:12:08;;;;;;;9.07;8.30;;;19.20;99.90;;;;;;6275038;28;20238;-58
2023/06/28 01:15:13;;;;;;;10.20;8.37;;;19.20;99.90;;;;;;6275068;28;20569;-58
2023/06/28 01:18:19;;;;;;;9.77;8.77;;;19.20;99.90;;;;;;6275238;28;20307;-58
2023/06/28 01:21:26;;;;;;;10.23;9.30;;;19.20;99.90;;;;;;6275488;28;20234;-58
2023/06/28 01:24:31;;;;;;;10.20;9.30;;;19.10;99.90;;;;;;6275327;28;20234;-58
2023/06/28 01:27:34;;;;;;;10.00;9.10;;;19.10;99.90;;;;;;6270628;28;20246;-58
2023/06/28 01:30:37;;;;;;;11.80;10.27;;;19.10;99.90;;;;;;6249904;28;20231;-58
2023/06/28 01:33:42;;;;;;;9.63;8.70;;;19.10;99.90;;;;;;6245938;28;20709;-58
2023/06/28 01:36:48;;;;;;;11.77;10.60;;;19.20;99.90;;;;;;6249657;28;20291;-58
2023/06/28 01:39:53;;;;;;;9.73;8.93;;;19.10;99.90;;;;;;6250088;28;20224;-58
2023/06/28 01:42:56;;;;;;;12.63;10.30;;;19.10;99.90;;;;;;6250258;28;20232;-58
2023/06/28 01:46:00;;;;;;;11.30;10.30;;;19.10;99.90;;;;;;6250293;28;20228;-58
2023/06/28 01:49:03;;;;;;;10.33;9.10;;;19.10;99.90;;;;;;6249747;28;20657;-58
2023/06/28 01:52:07;;;;;;;11.87;10.77;;;19.10;99.90;;;;;;6250143;28;20242;-58
2023/06/28 01:55:12;;;;;;;11.83;10.73;;;18.90;99.90;;;;;;6249882;28;20232;-58
2023/06/28 01:58:15;;;;;;;10.87;9.80;;;18.80;99.90;;;;;;6249750;28;20231;-58
2023/06/28 02:01:18;;;;;;;12.93;11.73;;;18.80;99.90;;;;;;6249915;28;20228;-58
2023/06/28 02:04:21;;;;;;;13.67;12.10;;;18.90;99.90;;;;;;6249732;28;20750;-58
2023/06/28 02:07:24;;;;;;;13.13;11.90;;;18.90;99.90;;;;;;6249798;28;20232;-58
2023/06/28 02:10:29;;;;;;;11.77;10.57;;;18.90;99.90;;;;;;6249455;28;20664;-58
2023/06/28 02:13:32;;;;;;;13.47;12.20;;;18.90;99.90;;;;;;6249963;28;20232;-58
2023/06/28 02:16:37;;;;;;;11.97;10.87;;;18.90;99.90;;;;;;6249183;28;20274;-58
2023/06/28 02:19:41;;;;;;;11.57;10.47;;;18.90;99.90;;;;;;6249665;28;20278;-58
2023/06/28 02:22:44;;;;;;;11.90;10.90;;;18.90;99.90;;;;;;6249242;28;20529;-58
2023/06/28 02:25:49;;;;;;;11.60;10.40;;;18.90;99.90;;;;;;6249491;28;20616;-58
2023/06/28 02:28:53;;;;;;;11.43;10.43;;;19.00;99.90;;;;;;6264346;28;20706;-58
2023/06/28 02:31:56;;;;;;;11.83;10.73;;;18.90;99.90;;;;;;6274081;28;20551;-58
2023/06/28 02:34:59;;;;;;;11.43;10.53;;;18.90;99.90;;;;;;6273919;28;20223;-58
2023/06/28 02:38:02;;;;;;;9.77;8.90;;;19.00;99.90;;;;;;6274377;28;20231;-58
2023/06/28 02:41:07;;;;;;;10.70;8.70;;;19.00;99.90;;;;;;6273873;28;20228;-58
2023/06/28 02:44:10;;;;;;;8.90;7.97;;;19.00;99.90;;;;;;6273783;28;20263;-58
2023/06/28 02:47:13;;;;;;;9.43;8.63;;;19.00;99.90;;;;;;6273854;28;20235;-58
2023/06/28 02:50:16;;;;;;;8.67;7.90;;;19.00;99.90;;;;;;6273617;28;20607;-58
2023/06/28 02:53:21;;;;;;;9.23;8.30;;;18.90;99.90;;;;;;6274180;28;20227;-58
2023/06/28 02:56:25;;;;;;;8.50;7.80;;;18.90;99.90;;;;;;6273212;28;20556;-58
2023/06/28 02:59:29;;;;;;;10.07;9.17;;;18.90;99.90;;;;;;6273753;28;20687;-58
2023/06/28 03:02:32;;;;;;;10.80;9.90;;;19.00;99.90;;;;;;6273931;28;20241;-58
2023/06/28 03:05:35;;;;;;;10.07;9.20;;;19.00;99.90;;;;;;6275109;28;20373;-58
2023/06/28 03:08:38;;;;;;;8.97;8.30;;;19.00;99.90;;;;;;6278180;28;20552;-58
2023/06/28 03:11:43;;;;;;;12.60;8.63;;;19.00;99.90;;;;;;6278685;28;20297;-58
2023/06/28 03:14:46;;;;;;;9.67;8.67;;;18.90;99.90;;;;;;6278336;28;20224;-58
2023/06/28 03:17:49;;;;;;;9.27;8.57;;;18.90;99.90;;;;;;6278500;28;20250;-58
2023/06/28 03:20:52;;;;;;;9.50;8.70;;;18.90;99.90;;;;;;6277965;28;20239;-58
2023/06/28 03:23:56;;;;;;;6.77;6.00;;;18.80;99.90;;;;;;6278294;28;20231;-58
2023/06/28 03:27:00;;;;;;;5.37;4.90;;;18.70;99.90;;;;;;6278309;28;20242;-58
2023/06/28 03:30:04;;;;;;;6.37;5.77;;;18.60;99.90;;;;;;6253535;28;20579;-58
2023/06/28 03:33:07;;;;;;;7.60;5.87;;;18.50;99.90;;;;;;6253056;28;20278;-58
2023/06/28 03:36:10;;;;;;;5.20;4.60;;;18.50;99.90;;;;;;6253215;28;20540;-58
2023/06/28 03:39:13;;;;;;;5.07;4.50;;;18.30;99.90;;;;;;6253504;28;20229;-59
2023/06/28 03:42:18;;;;;;;4.73;4.43;;;18.20;99.90;;;;;;6244000;28;20370;-58
2023/06/28 03:45:21;;;;;;;4.73;4.33;;;18.20;99.90;;;;;;6253034;28;20238;-58
2023/06/28 03:48:24;;;;;;;5.20;4.70;;;18.30;99.90;;;;;;6252828;28;20234;-58
2023/06/28 03:51:27;;;;;;;4.23;3.83;;;18.40;99.90;;;;;;6252994;28;20247;-58
2023/06/28 03:54:31;;;;;;;3.90;3.60;;;18.50;99.90;;;;;;6252969;28;20227;-58
2023/06/28 03:57:35;;;;;;;4.60;4.00;;;18.40;99.90;;;;;;6252874;28;20240;-59
2023/06/28 04:00:38;;;;;;;5.10;4.10;;;18.40;99.90;;;;;;6252761;28;20307;-58
2023/06/28 04:03:42;;;;;;;4.07;3.70;;;18.30;99.90;;;;;;6253014;28;20241;-58
2023/06/28 04:06:46;;;;;;;5.27;3.50;;;18.20;99.90;;;;;;6252742;28;20672;-59
2023/06/28 04:09:49;;;;;;;4.70;4.30;;;18.20;99.90;;;;;;6254474;28;20250;-58
2023/06/28 04:12:54;;;;;;;4.93;4.43;;;18.10;99.90;;;;;;6253740;28;20311;-58
2023/06/28 04:15:57;;;;;;;6.70;6.20;;;18.10;99.90;;;;;;6252086;28;20490;-58
2023/06/28 04:19:00;;;;;;;7.00;6.40;;;18.00;99.90;;;;;;6251923;28;20482;-58
2023/06/28 04:22:07;;;;;;;6.90;6.30;;;17.90;99.90;;;;;;6251894;28;20242;-58
2023/06/28 04:25:10;;;;;;;5.27;4.67;;;17.90;99.90;;;;;;6251379;28;20243;-58
2023/06/28 04:28:14;;;;;;;4.73;4.30;;;18.00;99.90;;;;;;6261099;28;20246;-58
2023/06/28 04:31:18;;;;;;;4.83;4.40;;;18.10;99.90;;;;;;6276277;28;20238;-58
2023/06/28 04:34:21;;;;;;;9.93;4.70;;;18.20;99.90;;;;;;6276192;28;20227;-58
2023/06/28 04:37:26;;;;;;;5.50;5.00;;;18.10;99.90;;;;;;6276387;28;20254;-58
2023/06/28 04:40:29;;;;;;;4.87;4.47;;;18.10;99.90;;;;;;6276366;28;20239;-58
2023/06/28 04:43:41;;;;;;;6.77;5.13;;;18.10;99.90;;;;;;6276350;28;20544;-58
2023/06/28 04:46:44;;;;;;;4.17;3.87;;;18.10;99.90;;;;;;6276075;28;20235;-58
2023/06/28 04:49:49;;;;;;;5.50;4.17;;;18.00;99.90;;;;;;6276058;28;20492;-58
2023/06/28 04:52:52;;;;;;;3.80;3.43;;;18.00;99.90;;;;;;6276106;28;20288;-58
2023/06/28 04:55:55;;;;;;;5.20;3.20;;;18.00;99.90;;;;;;6276367;28;20442;-58
2023/06/28 04:59:00;;;;;;;4.07;3.17;;;17.80;99.90;;;;;;6276071;28;20231;-58
2023/06/28 05:02:05;;;;;;;4.43;3.07;;;17.80;99.90;;;;;;6275760;28;20469;-58
2023/06/28 05:05:09;;;;;;;4.03;3.63;;;17.70;99.90;;;;;;6275192;28;20600;-58
2023/06/28 05:08:13;;;;;;;4.17;3.13;;;17.70;99.90;;;;;;6275830;28;20235;-58
2023/06/28 05:11:19;;;;;;;4.10;3.77;;;17.60;99.90;;;;;;6275475;28;20962;-58
2023/06/28 05:14:24;;;;;;;4.10;3.70;;;17.60;99.90;;;;;;6275537;28;20616;-58
2023/06/28 05:17:27;;;;;;;4.10;3.20;;;17.60;99.90;;;;;;6275418;28;20829;-58
2023/06/28 05:20:31;;;;;;;3.23;2.93;;;17.50;99.90;;;;;;6275715;28;20474;-58
2023/06/28 05:23:34;;;;;;;4.60;3.27;;;17.40;99.90;;;;;;6275580;28;21035;-58
2023/06/28 05:26:37;;;;;;;4.20;3.80;;;17.40;99.90;;;;;;6275269;28;20456;-58
2023/06/28 05:29:42;;;;;;;4.00;3.60;;;17.30;99.90;;;;;;6274486;28;20489;-58
2023/06/28 05:32:45;;;;;;;3.60;3.30;;;17.30;99.90;;;;;;6275425;28;20470;-58
2023/06/28 05:35:48;;;;;;;4.07;3.67;;;17.30;99.90;;;;;;6275829;28;20485;-58
2023/06/28 05:38:52;;;;;;;4.30;3.90;;;17.40;99.90;;;;;;6275933;28;20945;-58
2023/06/28 05:41:55;;;;;;;5.60;3.20;;;17.40;99.90;;;;;;6275181;28;20246;-58
2023/06/28 05:45:00;;;;;;;4.33;3.40;;;17.50;99.90;;;;;;6275155;28;20558;-58
2023/06/28 05:48:03;;;;;;;3.93;3.63;;;17.70;99.90;;;;;;6274456;28;20289;-58
2023/06/28 05:51:09;;;;;;;5.70;3.93;;;18.00;99.90;;;;;;6274813;28;20224;-58
2023/06/28 05:54:13;;;;;;;4.63;4.00;;;18.10;99.90;;;;;;6274513;28;20241;-58
2023/06/28 05:57:16;;;;;;;4.13;3.83;;;18.30;99.90;;;;;;6274346;28;20595;-58
2023/06/28 06:00:21;;;;;;;6.40;3.10;;;18.60;99.90;;;;;;6273695;28;20585;-58
2023/06/28 06:03:24;;;;;;;4.80;3.40;;;19.10;99.90;;;;;;6274411;28;20338;-58
2023/06/28 06:06:27;;;;;;;3.60;3.30;;;19.60;99.90;;;;;;6274227;28;20257;-59
2023/06/28 06:09:30;;;;;;;3.17;2.97;;;20.00;99.90;;;;;;6274689;28;20353;-58
2023/06/28 06:12:33;;;;;;;4.13;3.37;;;20.40;99.90;;;;;;6274353;28;20231;-58
2023/06/28 06:15:38;;;;;;;3.30;3.00;;;20.60;99.90;;;;;;6274722;28;20237;-59
2023/06/28 06:18:42;;;;;;;2.90;2.50;;;21.20;99.90;;;;;;6274056;28;20231;-65
2023/06/28 06:21:46;;;;;;;3.37;3.07;;;21.90;99.90;;;;;;6274111;28;20234;-65
2023/06/28 06:24:49;;;;;;;3.70;3.30;;;22.40;98.90;;;;;;6270795;28;20324;-65
2023/06/28 06:27:52;;;;;;;4.50;3.37;;;22.60;99.50;;;;;;6270662;28;20280;-65
2023/06/28 06:30:57;;;;;;;3.43;3.13;;;22.30;98.50;;;;;;6272573;28;20238;-65
2023/06/28 06:34:01;;;;;;;4.03;2.97;;;22.40;98.80;;;;;;6269832;28;20235;-65
2023/06/28 06:37:04;;;;;;;3.77;2.80;;;22.50;98.00;;;;;;6273425;28;20230;-65
2023/06/28 06:40:09;;;;;;;2.77;2.40;;;23.20;97.10;;;;;;6273623;28;20223;-66
2023/06/28 06:43:12;;;;;;;5.30;3.20;;;23.80;96.50;;;;;;6279345;28;20256;-65
2023/06/28 06:46:20;;;;;;;3.20;2.90;;;24.50;95.40;;;;;;6279255;28;20233;-66
2023/06/28 06:49:23;;;;;;;5.10;2.77;;;25.10;93.40;;;;;;6280471;28;20242;-66
2023/06/28 06:52:26;;;;;;;3.47;2.80;;;26.00;92.20;;;;;;6279243;28;20284;-66
2023/06/28 06:55:29;;;;;;;5.23;2.73;;;26.30;90.30;;;;;;6269775;28;20241;-66
2023/06/28 06:58:33;;;;;;;3.23;2.43;;;26.80;87.30;;;;;;6278894;28;20667;-66
2023/06/28 07:01:37;;;;;;;3.67;2.23;;;27.00;82.10;;;;;;6279185;28;20238;-66
2023/06/28 07:04:41;;;;;;;3.87;3.50;;;27.30;80.30;;;;;;6278727;28;20616;-66
2023/06/28 07:07:44;;;;;;;3.20;2.90;;;26.60;84.20;;;;;;6281103;28;20215;-66
2023/06/28 07:10:47;;;;;;;3.97;3.00;;;26.60;85.90;;;;;;6278878;28;20218;-66
2023/06/28 07:13:50;;;;;;;3.53;2.67;;;27.00;84.00;;;;;;6279054;28;20199;-67
2023/06/28 07:16:55;;;;;;;3.47;3.17;;;26.80;82.20;;;;;;6278886;28;20227;-66
2023/06/28 07:19:58;;;;;;;3.57;3.23;;;26.10;84.20;;;;;;6278734;28;20649;-66
2023/06/28 07:23:01;;;;;;;3.50;2.90;;;25.50;87.00;;;;;;6278419;28;20227;-65
2023/06/28 07:26:04;;;;;;;4.60;2.57;;;26.30;85.60;;;;;;6278268;28;20227;-65
2023/06/28 07:29:08;;;;;;;3.37;2.70;;;27.40;82.90;;;;;;6269916;28;20231;-65
2023/06/28 07:32:12;;;;;;;3.30;2.40;;;28.10;78.40;;;;;;6273116;28;20243;-65
2023/06/28 07:35:16;;;;;;;5.23;2.70;;;28.80;73.70;;;;;;6276679;28;20230;-65
2023/06/28 07:38:20;;;;;;;3.30;2.50;;;29.20;72.00;;;;;;6259189;28;20431;-65
2023/06/28 07:41:23;;;;;;;2.20;2.00;;;29.60;65.70;;;;;;6251430;28;20544;-65
2023/06/28 07:44:26;;;;;;;2.00;1.65;;;30.10;64.30;;;;;;6251256;28;20228;-65
2023/06/28 07:47:31;;;;;;;3.05;2.50;;;31.00;59.00;;;;;;6273693;28;20265;-65
2023/06/28 07:50:34;;;;;;;2.58;2.35;;;30.70;57.80;;;;;;6276176;28;20674;-65
2023/06/28 07:53:38;;;;;;;2.42;1.60;;;30.70;55.20;;;;;;6275583;28;20231;-65
2023/06/28 07:56:41;;;;;;;2.50;1.63;;;30.30;54.80;;;;;;6271275;28;20253;-64
2023/06/28 07:59:44;;;;;;;3.53;2.53;;;29.00;57.00;;;;;;6275729;28;20226;-64
2023/06/28 08:02:49;;;;;;;2.37;2.00;;;27.40;60.00;;;;;;6268258;28;20306;-69
2023/06/28 08:05:52;;;;;;;3.43;2.63;;;26.90;60.80;;;;;;6274424;28;20245;-68
2023/06/28 08:08:55;;;;;;;3.10;2.30;;;26.40;64.10;;;;;;6273902;28;20238;-68
2023/06/28 08:11:59;;;;;;;3.00;2.33;;;25.50;66.70;;;;;;6274950;28;20227;-66
2023/06/28 08:15:02;;;;;;;3.53;2.60;;;24.90;69.60;;;;;;6275360;28;20698;-65
2023/06/28 08:18:09;;;;;;;2.20;2.00;;;24.60;71.60;;;;;;6274991;28;20551;-66
2023/06/28 08:21:15;;;;;;;2.67;2.37;;;24.20;71.40;;;;;;6275203;28;20235;-65
2023/06/28 08:24:18;;;;;;;3.90;2.40;;;23.70;73.10;;;;;;6274895;28;20238;-66
2023/06/28 08:27:21;;;;;;;4.53;2.20;;;23.40;75.70;;;;;;6275190;28;20457;-65
2023/06/28 08:30:24;;;;;;;2.90;2.10;;;23.30;74.70;;;;;;6262350;28;20350;-65
2023/06/28 08:33:29;;;;;;;2.10;1.90;;;23.40;75.10;;;;;;6250068;28;20339;-65
2023/06/28 08:36:32;;;;;;;4.10;1.83;;;23.40;73.00;;;;;;6253787;28;20219;-67
2023/06/28 08:39:36;;;;;;;2.43;2.10;;;23.50;73.50;;;;;;6274632;28;20238;-66
2023/06/28 08:42:41;;;;;;;2.30;2.10;;;23.40;72.70;;;;;;6274594;28;20537;-67
2023/06/28 08:45:45;;;;;;;3.23;1.80;;;23.60;71.90;;;;;;6274745;28;20289;-67
2023/06/28 08:48:51;;;;;;;1.80;1.70;;;23.60;71.80;;;;;;6273972;28;20240;-65
2023/06/28 08:51:56;;;;;;;2.47;1.70;;;23.80;68.40;;;;;;6274270;28;20338;-67
2023/06/28 08:55:00;;;;;;;2.27;1.60;;;24.00;68.50;;;;;;6274393;28;20224;-67
2023/06/28 08:58:04;;;;;;;1.77;1.50;;;24.10;69.30;;;;;;6273897;28;20231;-67
2023/06/28 09:01:07;;;;;;;1.50;1.27;;;24.00;67.10;;;;;;6273730;28;20227;-67
2023/06/28 09:04:12;;;;;;;2.00;1.80;;;23.80;69.20;;;;;;6272630;28;20245;-67
2023/06/28 09:07:18;;;;;;;3.47;2.10;;;24.20;69.20;;;;;;6273563;28;20235;-66
2023/06/28 09:10:22;;;;;;;1.50;1.40;;;24.40;66.80;;;;;;6273346;28;20227;-65
2023/06/28 09:13:26;;;;;;;1.63;1.23;;;24.40;66.10;;;;;;6273264;28;20288;-66
2023/06/28 09:16:29;;;;;;;1.50;1.40;;;24.10;66.20;;;;;;6273259;28;20556;-67
2023/06/28 09:19:34;;;;;;;1.90;1.30;;;24.30;67.20;;;;;;6273466;28;20227;-66
2023/06/28 09:22:38;;;;;;;1.83;1.30;;;24.40;65.30;;;;;;6273846;28;20223;-67
2023/06/28 09:25:42;;;;;;;1.50;1.40;;;24.50;63.10;;;;;;6273776;28;20262;-65
2023/06/28 09:28:46;;;;;;;1.67;1.57;;;24.90;63.10;;;;;;6259250;28;20571;-65
2023/06/28 09:31:49;;;;;;;2.43;1.60;;;24.40;61.70;;;;;;6249889;28;20237;-66
2023/06/28 09:34:54;;;;;;;1.97;1.40;;;24.20;62.60;;;;;;6251022;28;20205;-65
2023/06/28 09:38:04;;;;;;;1.80;1.57;;;24.60;63.00;;;;;;6247943;28;20274;-66
2023/06/28 09:41:07;;;;;;;2.00;1.50;;;25.10;62.10;;;;;;6248871;28;20339;-66
2023/06/28 09:44:11;;;;;;;1.73;1.60;;;25.20;60.90;;;;;;6248245;28;20243;-65
2023/06/28 09:47:15;;;;;;;1.60;1.47;;;25.30;60.80;;;;;;6247841;28;20298;-65
2023/06/28 09:50:19;;;;;;;2.10;1.97;;;24.80;59.50;;;;;;6247911;28;20231;-67
2023/06/28 09:53:22;;;;;;;1.40;1.20;;;24.80;60.50;;;;;;6247619;28;20243;-66
2023/06/28 09:56:34;;;;;;;2.20;2.00;;;25.00;61.10;;;;;;6247909;28;20233;-66
2023/06/28 09:59:38;;;;;;;1.60;1.50;;;25.30;59.50;;;;;;6247798;28;20260;-67
2023/06/28 10:02:42;;;;;;;2.73;1.30;;;25.10;58.80;;;;;;6246285;28;20219;-66
2023/06/28 10:05:47;;;;;;;1.30;1.20;;;25.10;59.40;;;;;;6246868;28;20275;-64
2023/06/28 10:08:51;;;;;;;1.63;1.43;;;25.40;59.50;;;;;;6246286;28;20259;-65
2023/06/28 10:11:58;;;;;;;1.73;1.60;;;25.40;59.20;;;;;;6246746;28;20228;-65
2023/06/28 10:15:07;;;;;;;1.57;1.33;;;25.40;59.10;;;;;;6247644;28;20227;-66
2023/06/28 10:18:10;;;;;;;3.63;1.70;;;25.20;59.50;;;;;;6249306;28;20247;-65
2023/06/28 10:21:15;;;;;;;1.77;1.60;;;25.10;60.50;;;;;;6249345;28;20242;-65
2023/06/28 10:24:18;;;;;;;3.93;1.57;;;25.50;60.70;;;;;;6249372;28;20556;-65
2023/06/28 10:27:21;;;;;;;1.40;1.30;;;25.60;59.20;;;;;;6248988;28;20247;-66
2023/06/28 10:30:28;;;;;;;1.87;1.53;;;26.10;58.60;;;;;;6249433;28;20377;-66
2023/06/28 10:33:32;;;;;;;2.13;1.40;;;26.20;57.30;;;;;;6249060;28;20236;-65
2023/06/28 10:36:37;;;;;;;1.80;1.37;;;26.10;56.40;;;;;;6248725;28;20678;-65
2023/06/28 10:39:40;;;;;;;1.77;1.67;;;26.10;55.70;;;;;;6249205;28;20227;-65
2023/06/28 10:42:44;;;;;;;1.93;1.40;;;26.00;55.10;;;;;;6248869;28;20257;-65
2023/06/28 10:45:48;;;;;;;2.70;1.47;;;26.10;56.00;;;;;;6249363;28;20232;-65
2023/06/28 10:48:55;;;;;;;1.60;1.20;;;26.50;54.20;;;;;;6249101;28;20236;-65
2023/06/28 10:52:01;;;;;;;1.53;1.30;;;26.90;52.40;;;;;;6249410;28;20237;-66
2023/06/28 10:55:11;;;;;;;3.97;1.20;;;27.10;50.80;;;;;;6248823;28;20257;-66
2023/06/28 10:58:14;;;;;;;1.10;0.90;;;27.20;50.00;;;;;;6248781;28;20235;-66
2023/06/28 11:01:33;;;;;;;2.20;1.30;;;27.30;50.30;;;;;;6249101;28;20227;-66
2023/06/28 11:04:50;;;;;;;1.70;1.20;;;27.40;49.50;;;;;;6248577;28;20231;-65
2023/06/28 11:07:55;;;;;;;1.70;1.30;;;27.50;48.80;;;;;;6239604;28;20303;-66
2023/06/28 11:11:00;;;;;;;2.93;1.53;;;27.70;47.80;;;;;;6248896;28;20619;-66
2023/06/28 11:14:17;;;;;;;3.23;1.30;;;27.50;47.20;;;;;;6248318;28;20231;-66
2023/06/28 11:17:21;;;;;;;1.13;1.03;;;27.90;47.80;;;;;;6248643;28;20242;-66
2023/06/28 11:20:25;;;;;;;1.70;1.20;;;27.90;46.30;;;;;;6248684;28;20238;-63
2023/06/28 11:23:38;;;;;;;1.40;1.30;;;27.80;46.80;;;;;;6248794;28;20227;-66
2023/06/28 11:26:43;;;;;;;2.27;0.97;;;27.60;46.00;;;;;;6250297;28;20377;-66
2023/06/28 11:29:54;;;;;;;1.90;1.50;;;27.10;47.20;;;;;;6253326;28;20310;-67
2023/06/28 11:32:59;;;;;;;2.60;1.50;;;26.80;47.30;;;;;;6253098;28;20236;-66
2023/06/28 11:36:02;;;;;;;3.00;1.80;;;27.00;49.40;;;;;;6253040;28;20839;-67
2023/06/28 11:39:07;;;;;;;2.33;1.47;;;27.10;47.00;;;;;;6253222;28;20231;-66
2023/06/28 11:42:14;;;;;;;2.70;1.00;;;26.80;44.50;;;;;;6252706;28;20553;-66
2023/06/28 11:45:20;;;;;;;1.77;0.83;;;26.90;46.20;;;;;;6253307;28;20231;-66
2023/06/28 11:48:24;;;;;;;1.60;1.50;;;26.90;46.60;;;;;;6252582;28;20234;-66
2023/06/28 11:51:28;;;;;;;2.20;1.17;;;26.70;45.90;;;;;;6252976;28;20232;-66
2023/06/28 11:54:33;;;;;;;2.23;1.53;;;26.50;44.70;;;;;;6252474;28;20245;-67
2023/06/28 11:57:43;;;;;;;2.23;1.50;;;26.50;45.50;;;;;;6252560;28;20611;-66
2023/06/28 12:00:46;;;;;;;1.40;1.17;;;26.60;45.60;;;;;;6252358;28;20236;-67
2023/06/28 12:03:49;;;;;;;1.80;1.40;;;26.60;44.70;;;;;;6252026;28;20227;-63
2023/06/28 12:06:54;;;;;;;1.60;1.20;;;26.20;45.50;;;;;;6251051;28;20228;-69
2023/06/28 12:09:59;;;;;;;1.97;1.37;;;26.20;44.50;;;;;;6251251;28;20346;-66
2023/06/28 12:13:03;;;;;;;3.33;1.57;;;26.40;44.30;;;;;;6247038;28;20228;-69
2023/06/28 12:16:14;;;;;;;1.93;1.63;;;26.20;43.90;;;;;;6251523;28;20236;-66
2023/06/28 12:19:17;;;;;;;1.40;1.20;;;26.00;44.30;;;;;;6252132;28;20228;-68
2023/06/28 12:22:21;;;;;;;2.00;1.23;;;26.10;45.40;;;;;;6251991;28;20234;-67
2023/06/28 12:25:28;;;;;;;2.47;1.60;;;26.30;45.50;;;;;;6251926;28;20219;-67
2023/06/28 12:28:33;;;;;;;3.93;1.30;;;26.50;45.90;;;;;;6263979;28;20257;-66
2023/06/28 12:31:45;;;;;;;2.23;1.60;;;26.50;44.40;;;;;;6276217;28;20230;-67
2023/06/28 12:34:50;;;;;;;1.90;1.50;;;26.10;44.10;;;;;;6276425;28;20226;-67
2023/06/28 12:37:55;;;;;;;1.57;1.33;;;25.80;44.20;;;;;;6275927;28;20222;-66
2023/06/28 12:41:07;;;;;;;2.07;1.50;;;25.60;45.00;;;;;;6276871;28;20557;-65
2023/06/28 12:44:18;;;;;;;3.23;1.33;;;25.70;45.40;;;;;;6276529;28;20737;-65
2023/06/28 12:47:23;;;;;;;2.40;1.30;;;25.70;44.60;;;;;;6276215;28;20240;-65
2023/06/28 12:50:27;;;;;;;2.90;1.47;;;25.90;45.60;;;;;;6274933;28;20227;-66
2023/06/28 12:53:30;;;;;;;2.23;1.30;;;26.10;44.50;;;;;;6274834;28;20227;-65
2023/06/28 12:56:35;;;;;;;3.30;1.50;;;26.20;44.30;;;;;;6274735;28;20727;-65
2023/06/28 12:59:39;;;;;;;2.20;1.30;;;26.20;43.20;;;;;;6275200;28;20245;-66
2023/06/28 13:02:48;;;;;;;2.40;1.60;;;26.20;44.40;;;;;;6275978;28;20227;-65
2023/06/28 13:05:54;;;;;;;2.70;1.33;;;26.20;43.80;;;;;;6276108;28;20249;-65
2023/06/28 13:08:57;;;;;;;2.23;1.70;;;26.10;44.30;;;;;;6275221;28;20237;-65
2023/06/28 13:12:02;;;;;;;2.97;1.90;;;26.30;44.20;;;;;;6275562;28;20227;-66
2023/06/28 13:15:07;;;;;;;1.47;1.33;;;26.40;44.50;;;;;;6270755;28;20234;-66
2023/06/28 13:18:10;;;;;;;3.80;1.73;;;26.50;42.80;;;;;;6275657;28;20245;-65
2023/06/28 13:21:13;;;;;;;3.03;1.70;;;26.40;43.70;;;;;;6275930;28;20223;-65
2023/06/28 13:24:17;;;;;;;1.53;1.40;;;26.50;43.70;;;;;;6275870;28;20245;-65
2023/06/28 13:27:22;;;;;;;2.27;1.70;;;26.90;43.20;;;;;;6275516;28;20238;-64
2023/06/28 13:30:25;;;;;;;1.63;1.30;;;26.90;43.30;;;;;;6275535;28;20309;-65
2023/06/28 13:33:28;;;;;;;1.50;1.30;;;26.70;43.20;;;;;;6275580;28;20243;-64
2023/06/28 13:36:33;;;;;;;1.53;1.37;;;26.20;43.80;;;;;;6275019;28;20678;-64
2023/06/28 13:39:36;;;;;;;1.90;1.50;;;25.90;44.40;;;;;;6275488;28;20246;-64
2023/06/28 13:42:43;;;;;;;3.40;1.73;;;25.70;43.80;;;;;;6274970;28;20237;-64
2023/06/28 13:45:46;;;;;;;2.20;1.73;;;25.70;44.00;;;;;;6275257;28;20345;-64
2023/06/28 13:48:49;;;;;;;2.73;1.70;;;25.70;44.10;;;;;;6274483;28;20663;-65
2023/06/28 13:51:52;;;;;;;2.30;1.60;;;25.80;44.50;;;;;;6275065;28;20237;-64
2023/06/28 13:54:55;;;;;;;2.20;2.00;;;25.90;44.40;;;;;;6274565;28;20582;-65
2023/06/28 13:58:00;;;;;;;3.43;1.67;;;26.00;44.70;;;;;;6274518;28;20527;-65
2023/06/28 14:01:03;;;;;;;2.90;1.40;;;26.10;44.70;;;;;;6274406;28;20375;-66
2023/06/28 14:04:07;;;;;;;1.70;1.60;;;25.90;43.20;;;;;;6274711;28;20231;-66
2023/06/28 14:07:10;;;;;;;1.90;1.50;;;25.70;43.90;;;;;;6274552;28;20317;-66
2023/06/28 14:10:13;;;;;;;1.80;1.60;;;25.70;45.60;;;;;;6274400;28;21002;-66
2023/06/28 14:13:18;;;;;;;1.87;1.67;;;25.70;44.90;;;;;;6273684;28;20227;-65
2023/06/28 14:16:21;;;;;;;2.00;1.43;;;25.70;44.60;;;;;;6273581;28;20231;-65
2023/06/28 14:19:24;;;;;;;2.37;1.57;;;25.60;42.20;;;;;;6273803;28;20321;-65
2023/06/28 14:22:27;;;;;;;2.30;1.80;;;25.60;43.20;;;;;;6273950;28;20306;-64
2023/06/28 14:25:31;;;;;;;1.90;1.63;;;25.50;43.70;;;;;;6274476;28;20219;-64
2023/06/28 14:28:35;;;;;;;3.03;2.23;;;25.50;43.10;;;;;;6261238;28;20239;-65
2023/06/28 14:31:39;;;;;;;2.90;1.87;;;25.50;43.90;;;;;;6249427;28;20246;-65
2023/06/28 14:34:42;;;;;;;2.73;2.07;;;25.60;43.20;;;;;;6248989;28;20231;-65
2023/06/28 14:37:45;;;;;;;1.53;1.43;;;25.50;43.10;;;;;;6249329;28;20652;-65
2023/06/28 14:40:48;;;;;;;2.20;1.57;;;25.50;42.00;;;;;;6249060;28;20234;-65
2023/06/28 14:43:53;;;;;;;1.57;1.40;;;25.60;42.80;;;;;;6249461;28;20213;-65
2023/06/28 14:46:56;;;;;;;2.33;1.43;;;25.80;42.20;;;;;;6249218;28;20238;-65
2023/06/28 14:49:59;;;;;;;1.50;1.40;;;25.80;42.10;;;;;;6249648;28;20204;-65
2023/06/28 14:53:02;;;;;;;1.97;1.60;;;25.80;41.50;;;;;;6248627;28;20394;-65
2023/06/28 14:56:06;;;;;;;1.60;1.50;;;25.70;40.90;;;;;;6248816;28;20539;-65
2023/06/28 14:59:10;;;;;;;1.53;1.43;;;25.50;41.70;;;;;;6248579;28;20373;-65
2023/06/28 15:02:13;;;;;;;1.87;1.50;;;25.50;41.10;;;;;;6250116;28;20239;-65
2023/06/28 15:05:17;;;;;;;2.00;1.40;;;25.70;41.80;;;;;;6253273;28;20310;-65
2023/06/28 15:08:20;;;;;;;1.73;1.50;;;25.80;41.20;;;;;;6253437;28;20241;-64
2023/06/28 15:11:23;;;;;;;2.13;1.60;;;25.80;42.00;;;;;;6253420;28;20537;-64
2023/06/28 15:14:27;;;;;;;1.80;1.43;;;25.70;41.40;;;;;;6252516;28;20238;-66
2023/06/28 15:17:31;;;;;;;1.80;1.60;;;25.80;41.30;;;;;;6253215;28;20228;-66
2023/06/28 15:20:34;;;;;;;2.73;1.50;;;26.00;42.80;;;;;;6253237;28;20285;-68
2023/06/28 15:23:43;;;;;;;2.03;1.60;;;26.10;41.60;;;;;;6252436;28;20299;-65
2023/06/28 15:26:46;;;;;;;2.00;1.80;;;26.20;42.10;;;;;;6253008;28;20235;-66
2023/06/28 15:29:51;;;;;;;2.50;1.40;;;26.40;40.70;;;;;;6278062;28;20222;-64
2023/06/28 15:32:54;;;;;;;1.93;1.60;;;26.50;40.40;;;;;;6278005;28;20234;-64
2023/06/28 15:35:57;;;;;;;1.80;1.70;;;26.80;41.00;;;;;;6277747;28;20238;-66
2023/06/28 15:39:01;;;;;;;1.83;1.67;;;27.10;40.40;;;;;;6252771;28;20606;-67
2023/06/28 15:42:04;;;;;;;3.13;1.67;;;27.30;40.00;;;;;;6264237;28;20254;-63
2023/06/28 15:45:10;;;;;;;2.53;1.80;;;27.60;40.30;;;;;;6277706;28;20229;-63
2023/06/28 15:48:13;;;;;;;2.40;2.03;;;27.60;39.20;;;;;;6277521;28;20239;-64
2023/06/28 15:51:16;;;;;;;2.93;1.50;;;27.60;38.80;;;;;;6277164;28;20227;-64
2023/06/28 15:54:19;;;;;;;2.63;2.07;;;27.60;39.40;;;;;;6277388;28;20572;-64
2023/06/28 15:57:22;;;;;;;2.20;1.80;;;27.50;38.60;;;;;;6276953;28;20226;-64